Denton, TX

6:43 AM CDT on September 02, 2015 (GMT -0500)
UNT area | | Change Station
CLOSE
Current Station
Personal Weather Station
Location: Denton, TX
Elevation: 705 ft
Nearby Weather Stations

Elev 705 ft 33.22 °N, 97.15 °W | Updated 37 seconds ago

Clear
Clear
73.4 °F
Feels Like 73 °F
N
0.0
Wind Variable Wind from SE
Gusts 1.6 mph

Today
High -- | Low -- °F
--% Chance of Precip.
Yesterday
High -- | Low -- °F
Precip. -- in
7:03 AM 7:52 PM
Waning Gibbous, 81% visible
Pressure 30.01 in
Visibility 10.0 miles
Clouds Clear
Heat Index 73 °F
Dew Point 69 °F
Humidity 85%
Rainfall 0.00 in
Snow Depth Not available.
UV 0 out of 12
Pollen 9.30 out of 12
Air Quality Not available.
Flu Activity Not available.
METAR KDTO 021053Z 18003KT 10SM CLR 22/19 A3004 RMK AO2 SLP162 T02220189
Pressure 30.01 in
Visibility 10.0 miles
Clouds Clear
Heat Index 73 °F
Dew Point 69 °F
Humidity 85%
Rainfall 0.00 in
Snow Depth Not available.
UV 0 out of 12
Pollen 9.30 out of 12
Air Quality Not available.
Flu Activity Not available.
METAR KDTO 021053Z 18003KT 10SM CLR 22/19 A3004 RMK AO2 SLP162 T02220189

10-Day Weather Forecast

×

Almanac

Astronomy

Sep. 02, 2015 Rise Set
Actual Time
Civil Twilight
Nautical Twilight
Astronomical Twilight
Moon
Length of Visible Light
Length of Day
Tomorrow will be .
, % of the Moon is Illuminated

Today's Extremes

State Highs State Lows

Community

WunderPhotos

Upload Photos

1,851,736 photos uploaded!

WunderBlogs® & News

Nearby

Air Quality

  Air Quality AQ Index Pollutant
Not available.

Snow Depth

Station Depth Elevation

Earthquake Activity

City Distance Mag. Time & Date
Minimum magnitude displayed is 2.5.

Coastal Water Temperatures

Place Temperature

Stations

Nearby Weather Stations

Station Location Temp. Windchill Dew Point Humidity Wind Precip. Elev Updated Type